sensor_id;sensor_type;location;lat;lon;timestamp;P1;durP1;ratioP1;P2;durP2;ratioP2
45354;SDS011;31091;48.758;9.150;2024-02-14T00:02:07;10.15;;;3.95;;
45354;SDS011;31091;48.758;9.150;2024-02-14T00:04:53;8.23;;;3.95;;
45354;SDS011;31091;48.758;9.150;2024-02-14T00:07:38;9.88;;;4.10;;
45354;SDS011;31091;48.758;9.150;2024-02-14T00:10:24;10.65;;;4.03;;
45354;SDS011;31091;48.758;9.150;2024-02-14T00:13:10;11.50;;;4.55;;
45354;SDS011;31091;48.758;9.150;2024-02-14T00:15:55;9.77;;;4.65;;
45354;SDS011;31091;48.758;9.150;2024-02-14T00:18:41;11.63;;;4.45;;
45354;SDS011;31091;48.758;9.150;2024-02-14T00:21:27;8.25;;;4.28;;
45354;SDS011;31091;48.758;9.150;2024-02-14T00:24:12;9.23;;;4.47;;
45354;SDS011;31091;48.758;9.150;2024-02-14T00:29:59;8.65;;;3.65;;
45354;SDS011;31091;48.758;9.150;2024-02-14T00:32:45;11.57;;;3.63;;
45354;SDS011;31091;48.758;9.150;2024-02-14T00:35:30;5.95;;;3.42;;
45354;SDS011;31091;48.758;9.150;2024-02-14T00:38:16;8.13;;;4.30;;
45354;SDS011;31091;48.758;9.150;2024-02-14T00:41:01;8.48;;;3.58;;
45354;SDS011;31091;48.758;9.150;2024-02-14T00:43:46;7.38;;;4.13;;
45354;SDS011;31091;48.758;9.150;2024-02-14T00:46:31;7.30;;;3.50;;
45354;SDS011;31091;48.758;9.150;2024-02-14T00:49:17;8.65;;;3.35;;
45354;SDS011;31091;48.758;9.150;2024-02-14T00:52:02;7.68;;;3.80;;
45354;SDS011;31091;48.758;9.150;2024-02-14T00:54:47;8.40;;;4.25;;
45354;SDS011;31091;48.758;9.150;2024-02-14T00:57:33;9.43;;;3.75;;
45354;SDS011;31091;48.758;9.150;2024-02-14T01:00:18;8.70;;;3.85;;
45354;SDS011;31091;48.758;9.150;2024-02-14T01:03:03;7.90;;;3.70;;
45354;SDS011;31091;48.758;9.150;2024-02-14T01:05:49;8.38;;;3.70;;
45354;SDS011;31091;48.758;9.150;2024-02-14T01:08:34;8.05;;;3.50;;
45354;SDS011;31091;48.758;9.150;2024-02-14T01:11:21;6.93;;;3.47;;
45354;SDS011;31091;48.758;9.150;2024-02-14T01:14:06;7.60;;;3.22;;
45354;SDS011;31091;48.758;9.150;2024-02-14T01:16:51;5.38;;;3.30;;
45354;SDS011;31091;48.758;9.150;2024-02-14T01:19:39;8.23;;;3.38;;
45354;SDS011;31091;48.758;9.150;2024-02-14T01:22:24;8.07;;;3.95;;
45354;SDS011;31091;48.758;9.150;2024-02-14T01:25:09;8.85;;;3.80;;
45354;SDS011;31091;48.758;9.150;2024-02-14T01:27:54;10.55;;;4.45;;
45354;SDS011;31091;48.758;9.150;2024-02-14T01:30:39;5.15;;;3.08;;
45354;SDS011;31091;48.758;9.150;2024-02-14T01:33:26;6.95;;;3.67;;
45354;SDS011;31091;48.758;9.150;2024-02-14T01:36:11;8.90;;;3.17;;
45354;SDS011;31091;48.758;9.150;2024-02-14T01:38:56;7.68;;;3.10;;
45354;SDS011;31091;48.758;9.150;2024-02-14T01:41:45;12.73;;;6.32;;
45354;SDS011;31091;48.758;9.150;2024-02-14T01:44:33;12.25;;;5.07;;
45354;SDS011;31091;48.758;9.150;2024-02-14T01:47:19;8.50;;;4.05;;
45354;SDS011;31091;48.758;9.150;2024-02-14T01:50:05;8.70;;;4.00;;
45354;SDS011;31091;48.758;9.150;2024-02-14T01:52:51;5.43;;;2.95;;
45354;SDS011;31091;48.758;9.150;2024-02-14T01:55:37;6.30;;;3.13;;
45354;SDS011;31091;48.758;9.150;2024-02-14T01:58:22;7.72;;;3.80;;
45354;SDS011;31091;48.758;9.150;2024-02-14T02:01:07;7.03;;;3.45;;
45354;SDS011;31091;48.758;9.150;2024-02-14T02:03:55;5.80;;;2.95;;
45354;SDS011;31091;48.758;9.150;2024-02-14T02:06:40;7.65;;;3.72;;
45354;SDS011;31091;48.758;9.150;2024-02-14T02:09:28;7.00;;;3.30;;
45354;SDS011;31091;48.758;9.150;2024-02-14T02:12:16;6.22;;;2.78;;
45354;SDS011;31091;48.758;9.150;2024-02-14T02:15:01;4.85;;;2.92;;
45354;SDS011;31091;48.758;9.150;2024-02-14T02:17:47;6.28;;;2.95;;
45354;SDS011;31091;48.758;9.150;2024-02-14T02:20:37;3.47;;;2.33;;
45354;SDS011;31091;48.758;9.150;2024-02-14T02:23:23;6.90;;;2.42;;
45354;SDS011;31091;48.758;9.150;2024-02-14T02:26:09;7.78;;;3.50;;
45354;SDS011;31091;48.758;9.150;2024-02-14T02:28:58;7.85;;;2.90;;
45354;SDS011;31091;48.758;9.150;2024-02-14T02:31:45;7.15;;;3.00;;
45354;SDS011;31091;48.758;9.150;2024-02-14T02:34:30;7.68;;;2.97;;
45354;SDS011;31091;48.758;9.150;2024-02-14T02:37:16;6.55;;;3.05;;
45354;SDS011;31091;48.758;9.150;2024-02-14T02:40:01;5.43;;;3.20;;
45354;SDS011;31091;48.758;9.150;2024-02-14T02:42:47;6.03;;;3.65;;
45354;SDS011;31091;48.758;9.150;2024-02-14T02:45:32;9.65;;;3.22;;
45354;SDS011;31091;48.758;9.150;2024-02-14T02:48:17;6.22;;;2.95;;
45354;SDS011;31091;48.758;9.150;2024-02-14T02:51:05;9.18;;;2.85;;
45354;SDS011;31091;48.758;9.150;2024-02-14T02:53:51;7.18;;;3.03;;
45354;SDS011;31091;48.758;9.150;2024-02-14T02:56:39;5.43;;;2.70;;
45354;SDS011;31091;48.758;9.150;2024-02-14T02:59:26;8.05;;;3.25;;
45354;SDS011;31091;48.758;9.150;2024-02-14T03:02:14;10.25;;;3.15;;
45354;SDS011;31091;48.758;9.150;2024-02-14T03:05:00;8.85;;;3.20;;
45354;SDS011;31091;48.758;9.150;2024-02-14T03:07:47;6.43;;;3.40;;
45354;SDS011;31091;48.758;9.150;2024-02-14T03:10:35;7.78;;;3.15;;
45354;SDS011;31091;48.758;9.150;2024-02-14T03:13:20;6.45;;;2.95;;
45354;SDS011;31091;48.758;9.150;2024-02-14T03:16:05;6.40;;;2.70;;
45354;SDS011;31091;48.758;9.150;2024-02-14T03:18:50;5.68;;;3.13;;
45354;SDS011;31091;48.758;9.150;2024-02-14T03:21:35;7.30;;;3.30;;
45354;SDS011;31091;48.758;9.150;2024-02-14T03:24:21;7.03;;;3.20;;
45354;SDS011;31091;48.758;9.150;2024-02-14T03:27:06;5.85;;;2.72;;
45354;SDS011;31091;48.758;9.150;2024-02-14T03:29:52;5.97;;;3.28;;
45354;SDS011;31091;48.758;9.150;2024-02-14T03:32:43;6.70;;;2.78;;
45354;SDS011;31091;48.758;9.150;2024-02-14T03:35:29;6.78;;;3.05;;
45354;SDS011;31091;48.758;9.150;2024-02-14T03:38:24;8.43;;;3.20;;
45354;SDS011;31091;48.758;9.150;2024-02-14T03:41:09;7.05;;;2.67;;
45354;SDS011;31091;48.758;9.150;2024-02-14T03:43:55;5.43;;;2.92;;
45354;SDS011;31091;48.758;9.150;2024-02-14T03:46:43;6.65;;;2.85;;
45354;SDS011;31091;48.758;9.150;2024-02-14T03:49:28;7.65;;;2.65;;
45354;SDS011;31091;48.758;9.150;2024-02-14T03:52:15;5.05;;;2.67;;
45354;SDS011;31091;48.758;9.150;2024-02-14T03:55:01;8.60;;;2.90;;
45354;SDS011;31091;48.758;9.150;2024-02-14T03:57:46;7.03;;;2.75;;
45354;SDS011;31091;48.758;9.150;2024-02-14T04:00:33;5.78;;;2.85;;
45354;SDS011;31091;48.758;9.150;2024-02-14T04:03:20;6.47;;;2.58;;
45354;SDS011;31091;48.758;9.150;2024-02-14T04:06:05;7.22;;;3.00;;
45354;SDS011;31091;48.758;9.150;2024-02-14T04:08:52;5.30;;;2.83;;
45354;SDS011;31091;48.758;9.150;2024-02-14T04:11:37;10.55;;;3.00;;
45354;SDS011;31091;48.758;9.150;2024-02-14T04:14:22;12.07;;;4.20;;
45354;SDS011;31091;48.758;9.150;2024-02-14T04:17:08;5.38;;;2.85;;
45354;SDS011;31091;48.758;9.150;2024-02-14T04:19:53;7.60;;;2.92;;
45354;SDS011;31091;48.758;9.150;2024-02-14T04:22:39;8.30;;;2.92;;
45354;SDS011;31091;48.758;9.150;2024-02-14T04:25:24;6.70;;;2.50;;
45354;SDS011;31091;48.758;9.150;2024-02-14T04:28:10;5.88;;;2.75;;
45354;SDS011;31091;48.758;9.150;2024-02-14T04:30:57;7.20;;;2.63;;
45354;SDS011;31091;48.758;9.150;2024-02-14T04:33:42;6.47;;;2.97;;
45354;SDS011;31091;48.758;9.150;2024-02-14T04:36:32;8.80;;;4.82;;
45354;SDS011;31091;48.758;9.150;2024-02-14T04:39:18;8.20;;;3.80;;
45354;SDS011;31091;48.758;9.150;2024-02-14T04:42:03;7.57;;;3.35;;
45354;SDS011;31091;48.758;9.150;2024-02-14T04:44:49;7.82;;;3.13;;
45354;SDS011;31091;48.758;9.150;2024-02-14T04:47:35;5.68;;;2.90;;
45354;SDS011;31091;48.758;9.150;2024-02-14T04:50:21;8.32;;;3.65;;
45354;SDS011;31091;48.758;9.150;2024-02-14T04:53:06;7.63;;;3.80;;
45354;SDS011;31091;48.758;9.150;2024-02-14T04:55:52;7.45;;;3.25;;
45354;SDS011;31091;48.758;9.150;2024-02-14T04:58:38;10.98;;;3.20;;
45354;SDS011;31091;48.758;9.150;2024-02-14T05:01:23;4.72;;;2.83;;
45354;SDS011;31091;48.758;9.150;2024-02-14T05:04:10;6.32;;;2.95;;
45354;SDS011;31091;48.758;9.150;2024-02-14T05:06:53;6.05;;;2.45;;
45354;SDS011;31091;48.758;9.150;2024-02-14T05:09:38;6.53;;;3.05;;
45354;SDS011;31091;48.758;9.150;2024-02-14T05:12:23;3.88;;;2.78;;
45354;SDS011;31091;48.758;9.150;2024-02-14T05:15:12;4.70;;;2.70;;
45354;SDS011;31091;48.758;9.150;2024-02-14T05:17:58;5.78;;;2.58;;
45354;SDS011;31091;48.758;9.150;2024-02-14T05:20:50;8.13;;;2.80;;
45354;SDS011;31091;48.758;9.150;2024-02-14T05:23:36;5.45;;;2.75;;
45354;SDS011;31091;48.758;9.150;2024-02-14T05:26:21;8.13;;;2.63;;
45354;SDS011;31091;48.758;9.150;2024-02-14T05:29:07;4.55;;;2.60;;
45354;SDS011;31091;48.758;9.150;2024-02-14T05:31:52;5.85;;;2.63;;
45354;SDS011;31091;48.758;9.150;2024-02-14T05:34:40;6.18;;;2.50;;
45354;SDS011;31091;48.758;9.150;2024-02-14T05:37:25;6.18;;;3.25;;
45354;SDS011;31091;48.758;9.150;2024-02-14T05:40:12;6.85;;;2.80;;
45354;SDS011;31091;48.758;9.150;2024-02-14T05:42:57;4.85;;;2.28;;
45354;SDS011;31091;48.758;9.150;2024-02-14T05:45:43;7.90;;;2.45;;
45354;SDS011;31091;48.758;9.150;2024-02-14T05:48:28;6.57;;;2.75;;
45354;SDS011;31091;48.758;9.150;2024-02-14T05:51:14;6.05;;;2.47;;
45354;SDS011;31091;48.758;9.150;2024-02-14T05:53:57;6.72;;;3.35;;
45354;SDS011;31091;48.758;9.150;2024-02-14T05:56:43;8.75;;;3.30;;
45354;SDS011;31091;48.758;9.150;2024-02-14T05:59:31;8.32;;;3.15;;
45354;SDS011;31091;48.758;9.150;2024-02-14T06:02:17;9.90;;;5.25;;
45354;SDS011;31091;48.758;9.150;2024-02-14T06:05:03;9.48;;;3.00;;
45354;SDS011;31091;48.758;9.150;2024-02-14T06:07:48;7.50;;;3.92;;
45354;SDS011;31091;48.758;9.150;2024-02-14T06:10:33;8.95;;;2.90;;
45354;SDS011;31091;48.758;9.150;2024-02-14T06:13:19;5.93;;;2.83;;
45354;SDS011;31091;48.758;9.150;2024-02-14T06:16:05;7.13;;;2.97;;
45354;SDS011;31091;48.758;9.150;2024-02-14T06:18:51;7.60;;;2.70;;
45354;SDS011;31091;48.758;9.150;2024-02-14T06:21:36;6.93;;;3.03;;
45354;SDS011;31091;48.758;9.150;2024-02-14T06:24:22;4.50;;;2.50;;
45354;SDS011;31091;48.758;9.150;2024-02-14T06:27:11;7.78;;;2.55;;
45354;SDS011;31091;48.758;9.150;2024-02-14T06:29:59;4.15;;;2.22;;
45354;SDS011;31091;48.758;9.150;2024-02-14T06:32:53;7.13;;;2.55;;
45354;SDS011;31091;48.758;9.150;2024-02-14T06:35:39;6.78;;;2.53;;
45354;SDS011;31091;48.758;9.150;2024-02-14T06:38:24;4.47;;;2.53;;
45354;SDS011;31091;48.758;9.150;2024-02-14T06:41:11;6.95;;;2.78;;
45354;SDS011;31091;48.758;9.150;2024-02-14T06:43:57;6.82;;;2.85;;
45354;SDS011;31091;48.758;9.150;2024-02-14T06:46:43;4.97;;;2.55;;
45354;SDS011;31091;48.758;9.150;2024-02-14T06:49:28;5.82;;;2.88;;
45354;SDS011;31091;48.758;9.150;2024-02-14T06:52:14;4.22;;;2.30;;
45354;SDS011;31091;48.758;9.150;2024-02-14T06:55:00;5.18;;;2.38;;
45354;SDS011;31091;48.758;9.150;2024-02-14T06:57:45;6.43;;;2.58;;
45354;SDS011;31091;48.758;9.150;2024-02-14T07:00:31;7.60;;;2.90;;
45354;SDS011;31091;48.758;9.150;2024-02-14T07:03:23;6.45;;;2.63;;
45354;SDS011;31091;48.758;9.150;2024-02-14T07:06:09;6.10;;;2.83;;
45354;SDS011;31091;48.758;9.150;2024-02-14T07:08:54;7.53;;;3.42;;
45354;SDS011;31091;48.758;9.150;2024-02-14T07:11:39;6.72;;;2.53;;
45354;SDS011;31091;48.758;9.150;2024-02-14T07:14:25;6.40;;;2.80;;
45354;SDS011;31091;48.758;9.150;2024-02-14T07:17:10;11.27;;;4.72;;
45354;SDS011;31091;48.758;9.150;2024-02-14T07:19:55;9.93;;;4.38;;
45354;SDS011;31091;48.758;9.150;2024-02-14T07:22:41;8.45;;;3.05;;
45354;SDS011;31091;48.758;9.150;2024-02-14T07:25:26;5.07;;;2.90;;
45354;SDS011;31091;48.758;9.150;2024-02-14T07:28:12;6.43;;;2.42;;
45354;SDS011;31091;48.758;9.150;2024-02-14T07:30:58;4.90;;;2.25;;
45354;SDS011;31091;48.758;9.150;2024-02-14T07:33:43;4.65;;;2.42;;
45354;SDS011;31091;48.758;9.150;2024-02-14T07:36:29;6.22;;;2.47;;
45354;SDS011;31091;48.758;9.150;2024-02-14T07:39:14;6.22;;;2.58;;
45354;SDS011;31091;48.758;9.150;2024-02-14T07:42:00;4.65;;;2.25;;
45354;SDS011;31091;48.758;9.150;2024-02-14T07:44:45;8.30;;;2.65;;
45354;SDS011;31091;48.758;9.150;2024-02-14T07:47:31;8.18;;;2.60;;
45354;SDS011;31091;48.758;9.150;2024-02-14T07:50:16;5.72;;;2.50;;
45354;SDS011;31091;48.758;9.150;2024-02-14T07:53:02;7.88;;;3.53;;
45354;SDS011;31091;48.758;9.150;2024-02-14T07:55:47;4.30;;;2.33;;
45354;SDS011;31091;48.758;9.150;2024-02-14T07:58:32;9.13;;;2.20;;
45354;SDS011;31091;48.758;9.150;2024-02-14T08:01:17;5.70;;;2.60;;
45354;SDS011;31091;48.758;9.150;2024-02-14T08:04:03;5.55;;;2.42;;
45354;SDS011;31091;48.758;9.150;2024-02-14T08:06:49;5.20;;;3.00;;
45354;SDS011;31091;48.758;9.150;2024-02-14T08:09:34;4.97;;;2.75;;
45354;SDS011;31091;48.758;9.150;2024-02-14T08:12:20;8.80;;;4.05;;
45354;SDS011;31091;48.758;9.150;2024-02-14T08:15:06;6.82;;;2.85;;
45354;SDS011;31091;48.758;9.150;2024-02-14T08:17:51;5.45;;;2.33;;
45354;SDS011;31091;48.758;9.150;2024-02-14T08:20:40;10.55;;;3.92;;
45354;SDS011;31091;48.758;9.150;2024-02-14T08:23:26;14.10;;;4.03;;
45354;SDS011;31091;48.758;9.150;2024-02-14T08:26:11;9.60;;;4.20;;
45354;SDS011;31091;48.758;9.150;2024-02-14T08:28:57;7.75;;;2.90;;
45354;SDS011;31091;48.758;9.150;2024-02-14T08:31:45;11.20;;;4.27;;
45354;SDS011;31091;48.758;9.150;2024-02-14T08:34:31;8.45;;;3.80;;
45354;SDS011;31091;48.758;9.150;2024-02-14T08:37:17;9.40;;;3.35;;
45354;SDS011;31091;48.758;9.150;2024-02-14T08:40:02;8.55;;;2.85;;
45354;SDS011;31091;48.758;9.150;2024-02-14T08:42:50;5.25;;;2.70;;
45354;SDS011;31091;48.758;9.150;2024-02-14T08:45:36;5.55;;;2.80;;
45354;SDS011;31091;48.758;9.150;2024-02-14T08:48:23;5.57;;;3.00;;
45354;SDS011;31091;48.758;9.150;2024-02-14T08:51:08;6.50;;;2.83;;
45354;SDS011;31091;48.758;9.150;2024-02-14T08:53:54;5.65;;;3.05;;
45354;SDS011;31091;48.758;9.150;2024-02-14T08:56:42;6.75;;;2.72;;
45354;SDS011;31091;48.758;9.150;2024-02-14T08:59:27;6.40;;;2.40;;
45354;SDS011;31091;48.758;9.150;2024-02-14T09:02:12;5.40;;;2.63;;
45354;SDS011;31091;48.758;9.150;2024-02-14T09:04:58;5.50;;;1.88;;
45354;SDS011;31091;48.758;9.150;2024-02-14T09:07:43;5.35;;;1.83;;
45354;SDS011;31091;48.758;9.150;2024-02-14T09:10:29;3.38;;;1.83;;
45354;SDS011;31091;48.758;9.150;2024-02-14T09:13:14;3.03;;;1.60;;
45354;SDS011;31091;48.758;9.150;2024-02-14T09:15:59;2.20;;;1.50;;
45354;SDS011;31091;48.758;9.150;2024-02-14T09:18:45;3.50;;;2.15;;
45354;SDS011;31091;48.758;9.150;2024-02-14T09:21:30;2.88;;;1.92;;
45354;SDS011;31091;48.758;9.150;2024-02-14T09:24:18;2.42;;;1.77;;
45354;SDS011;31091;48.758;9.150;2024-02-14T09:27:03;2.80;;;1.67;;
45354;SDS011;31091;48.758;9.150;2024-02-14T09:29:50;5.20;;;1.73;;
45354;SDS011;31091;48.758;9.150;2024-02-14T09:32:36;4.10;;;1.80;;
45354;SDS011;31091;48.758;9.150;2024-02-14T09:35:22;5.50;;;2.40;;
45354;SDS011;31091;48.758;9.150;2024-02-14T09:38:07;4.63;;;2.22;;
45354;SDS011;31091;48.758;9.150;2024-02-14T09:40:53;4.40;;;1.95;;
45354;SDS011;31091;48.758;9.150;2024-02-14T09:43:39;7.18;;;2.33;;
45354;SDS011;31091;48.758;9.150;2024-02-14T09:46:26;6.20;;;2.47;;
45354;SDS011;31091;48.758;9.150;2024-02-14T09:49:11;6.30;;;1.92;;
45354;SDS011;31091;48.758;9.150;2024-02-14T09:51:57;6.18;;;2.78;;
45354;SDS011;31091;48.758;9.150;2024-02-14T09:54:42;4.90;;;1.80;;
45354;SDS011;31091;48.758;9.150;2024-02-14T09:57:28;4.15;;;1.60;;
45354;SDS011;31091;48.758;9.150;2024-02-14T10:00:14;4.28;;;1.38;;
45354;SDS011;31091;48.758;9.150;2024-02-14T10:02:59;2.47;;;1.60;;
45354;SDS011;31091;48.758;9.150;2024-02-14T10:05:45;3.38;;;1.50;;
45354;SDS011;31091;48.758;9.150;2024-02-14T10:08:30;3.70;;;1.48;;
45354;SDS011;31091;48.758;9.150;2024-02-14T10:11:15;4.35;;;1.40;;
45354;SDS011;31091;48.758;9.150;2024-02-14T10:14:04;11.07;;;1.98;;
45354;SDS011;31091;48.758;9.150;2024-02-14T10:16:49;4.13;;;1.67;;
45354;SDS011;31091;48.758;9.150;2024-02-14T10:19:35;3.15;;;1.77;;
45354;SDS011;31091;48.758;9.150;2024-02-14T10:22:21;2.35;;;1.30;;
45354;SDS011;31091;48.758;9.150;2024-02-14T10:25:06;3.90;;;1.85;;
45354;SDS011;31091;48.758;9.150;2024-02-14T10:27:53;5.13;;;1.67;;
45354;SDS011;31091;48.758;9.150;2024-02-14T10:30:39;4.45;;;1.70;;
45354;SDS011;31091;48.758;9.150;2024-02-14T10:33:27;3.42;;;1.40;;
45354;SDS011;31091;48.758;9.150;2024-02-14T10:36:12;4.50;;;1.60;;
45354;SDS011;31091;48.758;9.150;2024-02-14T10:38:58;2.60;;;1.50;;
45354;SDS011;31091;48.758;9.150;2024-02-14T10:41:44;3.88;;;1.50;;
45354;SDS011;31091;48.758;9.150;2024-02-14T10:44:29;3.03;;;1.35;;
45354;SDS011;31091;48.758;9.150;2024-02-14T10:47:17;2.83;;;1.40;;
45354;SDS011;31091;48.758;9.150;2024-02-14T10:50:04;3.67;;;1.90;;
45354;SDS011;31091;48.758;9.150;2024-02-14T10:52:51;4.25;;;1.55;;
45354;SDS011;31091;48.758;9.150;2024-02-14T10:55:38;2.30;;;1.50;;
45354;SDS011;31091;48.758;9.150;2024-02-14T10:58:25;2.30;;;1.38;;
45354;SDS011;31091;48.758;9.150;2024-02-14T11:01:13;3.15;;;1.63;;
45354;SDS011;31091;48.758;9.150;2024-02-14T11:04:00;3.25;;;1.45;;
45354;SDS011;31091;48.758;9.150;2024-02-14T11:06:51;2.05;;;1.23;;
45354;SDS011;31091;48.758;9.150;2024-02-14T11:09:38;3.47;;;1.15;;
45354;SDS011;31091;48.758;9.150;2024-02-14T11:12:25;2.53;;;1.20;;
45354;SDS011;31091;48.758;9.150;2024-02-14T11:15:17;5.00;;;1.63;;
45354;SDS011;31091;48.758;9.150;2024-02-14T11:18:04;2.40;;;1.25;;
45354;SDS011;31091;48.758;9.150;2024-02-14T11:20:50;3.42;;;1.15;;
45354;SDS011;31091;48.758;9.150;2024-02-14T11:23:35;4.78;;;1.30;;
45354;SDS011;31091;48.758;9.150;2024-02-14T11:26:21;5.45;;;1.33;;
45354;SDS011;31091;48.758;9.150;2024-02-14T11:29:13;2.15;;;1.40;;
45354;SDS011;31091;48.758;9.150;2024-02-14T11:31:58;1.98;;;1.20;;
45354;SDS011;31091;48.758;9.150;2024-02-14T11:35:03;2.15;;;1.27;;
45354;SDS011;31091;48.758;9.150;2024-02-14T11:37:51;2.40;;;0.80;;
45354;SDS011;31091;48.758;9.150;2024-02-14T11:40:36;1.83;;;1.10;;
45354;SDS011;31091;48.758;9.150;2024-02-14T11:43:25;3.97;;;1.10;;
45354;SDS011;31091;48.758;9.150;2024-02-14T11:46:11;1.35;;;1.00;;
45354;SDS011;31091;48.758;9.150;2024-02-14T11:48:58;3.63;;;1.40;;
45354;SDS011;31091;48.758;9.150;2024-02-14T11:51:45;2.92;;;1.80;;
45354;SDS011;31091;48.758;9.150;2024-02-14T11:54:30;1.25;;;1.10;;
45354;SDS011;31091;48.758;9.150;2024-02-14T11:57:16;1.40;;;1.27;;
45354;SDS011;31091;48.758;9.150;2024-02-14T12:00:02;1.73;;;1.00;;
45354;SDS011;31091;48.758;9.150;2024-02-14T12:02:47;1.73;;;1.27;;
45354;SDS011;31091;48.758;9.150;2024-02-14T12:05:32;1.70;;;1.20;;
45354;SDS011;31091;48.758;9.150;2024-02-14T12:08:18;1.70;;;1.08;;
45354;SDS011;31091;48.758;9.150;2024-02-14T12:11:04;1.30;;;1.17;;
45354;SDS011;31091;48.758;9.150;2024-02-14T12:13:50;1.85;;;1.27;;
45354;SDS011;31091;48.758;9.150;2024-02-14T12:16:36;2.78;;;1.05;;
45354;SDS011;31091;48.758;9.150;2024-02-14T12:19:22;1.20;;;1.10;;
45354;SDS011;31091;48.758;9.150;2024-02-14T12:22:10;3.17;;;1.00;;
45354;SDS011;31091;48.758;9.150;2024-02-14T12:25:02;1.70;;;1.10;;
45354;SDS011;31091;48.758;9.150;2024-02-14T12:27:51;2.65;;;1.13;;
45354;SDS011;31091;48.758;9.150;2024-02-14T12:30:46;3.13;;;1.42;;
45354;SDS011;31091;48.758;9.150;2024-02-14T12:33:35;1.75;;;1.17;;
45354;SDS011;31091;48.758;9.150;2024-02-14T12:36:20;2.58;;;0.95;;
45354;SDS011;31091;48.758;9.150;2024-02-14T12:39:05;2.55;;;0.90;;
45354;SDS011;31091;48.758;9.150;2024-02-14T12:41:51;1.33;;;0.98;;
45354;SDS011;31091;48.758;9.150;2024-02-14T12:44:39;3.30;;;1.00;;
45354;SDS011;31091;48.758;9.150;2024-02-14T12:47:25;1.58;;;1.15;;
45354;SDS011;31091;48.758;9.150;2024-02-14T12:50:16;2.30;;;1.10;;
45354;SDS011;31091;48.758;9.150;2024-02-14T12:53:01;3.15;;;1.30;;
45354;SDS011;31091;48.758;9.150;2024-02-14T12:55:47;1.35;;;0.90;;
45354;SDS011;31091;48.758;9.150;2024-02-14T12:58:33;2.20;;;0.98;;
45354;SDS011;31091;48.758;9.150;2024-02-14T13:01:18;1.95;;;0.90;;
45354;SDS011;31091;48.758;9.150;2024-02-14T13:04:03;2.15;;;1.00;;
45354;SDS011;31091;48.758;9.150;2024-02-14T13:06:50;1.75;;;0.93;;
45354;SDS011;31091;48.758;9.150;2024-02-14T13:09:35;5.57;;;1.42;;
45354;SDS011;31091;48.758;9.150;2024-02-14T13:12:22;1.45;;;0.88;;
45354;SDS011;31091;48.758;9.150;2024-02-14T13:15:08;1.23;;;0.80;;
45354;SDS011;31091;48.758;9.150;2024-02-14T13:17:53;3.55;;;1.15;;
45354;SDS011;31091;48.758;9.150;2024-02-14T13:20:39;1.40;;;0.88;;
45354;SDS011;31091;48.758;9.150;2024-02-14T13:23:24;1.20;;;0.98;;
45354;SDS011;31091;48.758;9.150;2024-02-14T13:26:09;4.40;;;1.52;;
45354;SDS011;31091;48.758;9.150;2024-02-14T13:28:55;1.02;;;0.77;;
45354;SDS011;31091;48.758;9.150;2024-02-14T13:31:39;0.88;;;0.80;;
45354;SDS011;31091;48.758;9.150;2024-02-14T13:34:28;2.45;;;1.20;;
45354;SDS011;31091;48.758;9.150;2024-02-14T13:37:13;0.80;;;0.80;;
45354;SDS011;31091;48.758;9.150;2024-02-14T13:40:00;2.85;;;1.08;;
45354;SDS011;31091;48.758;9.150;2024-02-14T13:42:47;0.85;;;0.85;;
45354;SDS011;31091;48.758;9.150;2024-02-14T13:45:42;0.90;;;0.70;;
45354;SDS011;31091;48.758;9.150;2024-02-14T13:48:28;0.75;;;0.75;;
45354;SDS011;31091;48.758;9.150;2024-02-14T13:51:13;1.38;;;0.90;;
45354;SDS011;31091;48.758;9.150;2024-02-14T13:53:58;0.70;;;0.70;;
45354;SDS011;31091;48.758;9.150;2024-02-14T13:56:44;1.05;;;0.90;;
45354;SDS011;31091;48.758;9.150;2024-02-14T13:59:29;3.03;;;0.90;;
45354;SDS011;31091;48.758;9.150;2024-02-14T14:02:14;2.10;;;0.82;;
45354;SDS011;31091;48.758;9.150;2024-02-14T14:05:00;0.75;;;0.70;;
45354;SDS011;31091;48.758;9.150;2024-02-14T14:07:45;0.90;;;0.80;;
45354;SDS011;31091;48.758;9.150;2024-02-14T14:10:31;4.07;;;1.27;;
45354;SDS011;31091;48.758;9.150;2024-02-14T14:13:16;0.65;;;0.60;;
45354;SDS011;31091;48.758;9.150;2024-02-14T14:16:02;0.88;;;0.73;;
45354;SDS011;31091;48.758;9.150;2024-02-14T14:18:50;1.17;;;0.85;;
45354;SDS011;31091;48.758;9.150;2024-02-14T14:21:35;1.92;;;0.93;;
45354;SDS011;31091;48.758;9.150;2024-02-14T14:24:20;1.40;;;0.80;;
45354;SDS011;31091;48.758;9.150;2024-02-14T14:27:06;1.52;;;1.20;;
45354;SDS011;31091;48.758;9.150;2024-02-14T14:29:54;2.17;;;0.80;;
45354;SDS011;31091;48.758;9.150;2024-02-14T14:32:39;1.13;;;0.80;;
45354;SDS011;31091;48.758;9.150;2024-02-14T14:35:28;2.03;;;0.80;;
45354;SDS011;31091;48.758;9.150;2024-02-14T14:38:14;1.13;;;0.80;;
45354;SDS011;31091;48.758;9.150;2024-02-14T14:41:00;1.67;;;0.80;;
45354;SDS011;31091;48.758;9.150;2024-02-14T14:43:45;4.15;;;1.10;;
45354;SDS011;31091;48.758;9.150;2024-02-14T14:46:31;1.80;;;1.00;;
45354;SDS011;31091;48.758;9.150;2024-02-14T14:49:16;2.70;;;0.90;;
45354;SDS011;31091;48.758;9.150;2024-02-14T14:52:02;2.08;;;1.30;;
45354;SDS011;31091;48.758;9.150;2024-02-14T14:54:49;1.75;;;1.17;;
45354;SDS011;31091;48.758;9.150;2024-02-14T14:57:34;1.23;;;0.95;;
45354;SDS011;31091;48.758;9.150;2024-02-14T15:00:25;1.77;;;0.85;;
45354;SDS011;31091;48.758;9.150;2024-02-14T15:03:11;1.60;;;1.00;;
45354;SDS011;31091;48.758;9.150;2024-02-14T15:05:57;1.55;;;1.10;;
45354;SDS011;31091;48.758;9.150;2024-02-14T15:08:42;2.45;;;1.20;;
45354;SDS011;31091;48.758;9.150;2024-02-14T15:11:28;2.33;;;0.85;;
45354;SDS011;31091;48.758;9.150;2024-02-14T15:14:14;2.90;;;0.80;;
45354;SDS011;31091;48.758;9.150;2024-02-14T15:16:59;2.85;;;1.15;;
45354;SDS011;31091;48.758;9.150;2024-02-14T15:19:45;1.42;;;0.80;;
45354;SDS011;31091;48.758;9.150;2024-02-14T15:22:30;1.05;;;0.80;;
45354;SDS011;31091;48.758;9.150;2024-02-14T15:25:15;2.35;;;0.90;;
45354;SDS011;31091;48.758;9.150;2024-02-14T15:28:07;1.23;;;0.88;;
45354;SDS011;31091;48.758;9.150;2024-02-14T15:30:57;2.00;;;1.02;;
45354;SDS011;31091;48.758;9.150;2024-02-14T15:34:01;1.45;;;0.85;;
45354;SDS011;31091;48.758;9.150;2024-02-14T15:36:48;3.13;;;0.90;;
45354;SDS011;31091;48.758;9.150;2024-02-14T15:39:33;1.15;;;0.90;;
45354;SDS011;31091;48.758;9.150;2024-02-14T15:42:19;2.10;;;0.82;;
45354;SDS011;31091;48.758;9.150;2024-02-14T15:45:04;2.35;;;1.00;;
45354;SDS011;31091;48.758;9.150;2024-02-14T15:47:51;1.45;;;0.90;;
45354;SDS011;31091;48.758;9.150;2024-02-14T15:50:36;1.33;;;0.90;;
45354;SDS011;31091;48.758;9.150;2024-02-14T15:53:22;1.20;;;1.02;;
45354;SDS011;31091;48.758;9.150;2024-02-14T15:56:11;1.17;;;0.70;;
45354;SDS011;31091;48.758;9.150;2024-02-14T15:58:58;1.83;;;0.90;;
45354;SDS011;31091;48.758;9.150;2024-02-14T16:01:43;2.00;;;1.08;;
45354;SDS011;31091;48.758;9.150;2024-02-14T16:04:29;1.67;;;1.00;;
45354;SDS011;31091;48.758;9.150;2024-02-14T16:07:14;2.03;;;1.23;;
45354;SDS011;31091;48.758;9.150;2024-02-14T16:09:59;1.08;;;0.95;;
45354;SDS011;31091;48.758;9.150;2024-02-14T16:12:45;2.92;;;1.08;;
45354;SDS011;31091;48.758;9.150;2024-02-14T16:15:31;1.48;;;0.90;;
45354;SDS011;31091;48.758;9.150;2024-02-14T16:18:16;1.45;;;1.20;;
45354;SDS011;31091;48.758;9.150;2024-02-14T16:21:04;2.30;;;1.20;;
45354;SDS011;31091;48.758;9.150;2024-02-14T16:23:50;2.10;;;1.00;;
45354;SDS011;31091;48.758;9.150;2024-02-14T16:26:36;2.20;;;1.20;;
45354;SDS011;31091;48.758;9.150;2024-02-14T16:29:21;3.80;;;1.65;;
45354;SDS011;31091;48.758;9.150;2024-02-14T16:32:06;2.40;;;1.40;;
45354;SDS011;31091;48.758;9.150;2024-02-14T16:34:52;3.25;;;1.65;;
45354;SDS011;31091;48.758;9.150;2024-02-14T16:37:37;1.67;;;1.17;;
45354;SDS011;31091;48.758;9.150;2024-02-14T16:40:22;2.67;;;1.58;;
45354;SDS011;31091;48.758;9.150;2024-02-14T16:43:08;2.60;;;1.35;;
45354;SDS011;31091;48.758;9.150;2024-02-14T16:45:55;1.90;;;1.35;;